Time;durP1;ratioP1;P1;durP2;ratioP2;P2;SDS_P1;SDS_P2;PMS_P1;PMS_P2;Temp;Humidity;BMP_temperature;BMP_pressure;BME280_temperature;BME280_humidity;BME280_pressure;Samples;Min_cycle;Max_cycle;Signal;HPM_P1;HPM_P2
2022/08/15 00:00:36;;;;;;;9.82;8.93;;;24.20;54.20;;;;;;5120214;28;20453;-64
2022/08/15 00:03:04;;;;;;;10.50;8.90;;;24.10;54.20;;;;;;5087943;28;20044;-64
2022/08/15 00:05:33;;;;;;;9.70;8.90;;;24.00;54.20;;;;;;5110055;28;20375;-64
2022/08/15 00:07:59;;;;;;;9.25;8.45;;;24.00;54.40;;;;;;5094967;28;20478;-64
2022/08/15 00:10:25;;;;;;;9.98;9.13;;;24.00;54.70;;;;;;5103440;27;20031;-63
2022/08/15 00:12:51;;;;;;;10.23;9.32;;;23.90;54.80;;;;;;5118654;27;20077;-64
2022/08/15 00:15:19;;;;;;;9.85;9.05;;;23.90;54.60;;;;;;5126976;27;20036;-64
2022/08/15 00:17:48;;;;;;;8.77;7.97;;;23.80;54.80;;;;;;5117600;27;20422;-68
2022/08/15 00:20:14;;;;;;;9.43;8.52;;;23.80;54.70;;;;;;5115734;27;20050;-64
2022/08/15 00:22:49;;;;;;;8.95;8.05;;;23.80;54.80;;;;;;5100690;27;20082;-69
2022/08/15 00:25:16;;;;;;;9.85;8.95;;;23.80;54.80;;;;;;5123837;27;20378;-68
2022/08/15 00:27:42;;;;;;;8.38;7.65;;;23.70;54.90;;;;;;5117330;27;20505;-69
2022/08/15 00:30:08;;;;;;;9.65;8.70;;;23.70;54.90;;;;;;5090928;27;20122;-67
2022/08/15 00:32:36;;;;;;;8.60;7.78;;;23.70;55.00;;;;;;5136360;27;20042;-64
2022/08/15 00:35:35;;;;;;;9.23;8.30;;;23.60;54.80;;;;;;5122681;27;20062;-64
2022/08/15 00:37:55;;;;;;;9.13;8.32;;;23.70;54.90;;;;;;5111253;27;20047;-64
2022/08/15 00:40:24;;;;;;;10.10;9.20;;;23.60;54.90;;;;;;5105471;28;20506;-64
2022/08/15 00:42:50;;;;;;;8.63;7.93;;;23.60;54.90;;;;;;5103139;27;20712;-64
2022/08/15 00:45:16;;;;;;;9.18;8.38;;;23.60;54.80;;;;;;5121848;27;20039;-64
2022/08/15 00:47:42;;;;;;;8.77;7.97;;;23.60;54.90;;;;;;5105229;27;20039;-64
2022/08/15 00:50:13;;;;;;;9.85;8.38;;;23.60;54.90;;;;;;5102847;27;20448;-68
2022/08/15 00:52:39;;;;;;;9.32;8.52;;;23.60;55.00;;;;;;5105970;28;20046;-68
2022/08/15 00:55:16;;;;;;;8.77;7.90;;;23.60;55.00;;;;;;5104001;28;20047;-69
2022/08/15 00:57:45;;;;;;;9.00;8.20;;;23.60;54.90;;;;;;5135286;27;20035;-63
2022/08/15 01:00:18;;;;;;;9.20;8.35;;;23.60;55.00;;;;;;5110739;27;20428;-64
2022/08/15 01:02:44;;;;;;;8.93;8.02;;;23.60;55.00;;;;;;5116475;27;20039;-63
2022/08/15 01:05:14;;;;;;;9.50;8.65;;;23.60;55.00;;;;;;5107892;27;20044;-70
2022/08/15 01:07:41;;;;;;;9.27;8.45;;;23.60;54.90;;;;;;5130985;27;20032;-68
2022/08/15 01:10:09;;;;;;;9.25;8.35;;;23.60;54.90;;;;;;5130601;27;20164;-64
2022/08/15 01:12:37;;;;;;;9.32;8.43;;;23.60;54.90;;;;;;5110923;27;20402;-64
2022/08/15 01:15:08;;;;;;;9.00;8.20;;;23.60;54.90;;;;;;5120786;27;20035;-64
2022/08/15 01:17:34;;;;;;;8.93;8.13;;;23.60;54.90;;;;;;5134146;27;20039;-64
2022/08/15 01:20:13;;;;;;;9.50;8.60;;;23.60;54.90;;;;;;5112429;27;20036;-69
2022/08/15 01:22:56;;;;;;;12.02;10.82;;;23.60;54.90;;;;;;5110440;27;20072;-69
2022/08/15 01:25:38;;;;;;;9.23;8.43;;;23.50;55.30;;;;;;5112935;27;20046;-68
2022/08/15 01:28:06;;;;;;;9.95;9.05;;;23.40;55.10;;;;;;5117146;27;20043;-69
2022/08/15 01:30:42;;;;;;;9.70;8.80;;;23.30;55.30;;;;;;5101503;27;20039;-64
2022/08/15 01:33:08;;;;;;;9.50;8.70;;;23.30;55.50;;;;;;5117042;27;20046;-64
2022/08/15 01:35:34;;;;;;;8.95;8.15;;;23.30;55.50;;;;;;5118292;27;20465;-64
2022/08/15 01:38:03;;;;;;;9.98;8.98;;;23.30;55.50;;;;;;5100808;27;20035;-64
2022/08/15 01:40:47;;;;;;;9.50;8.70;;;23.20;55.50;;;;;;5099869;28;20040;-64
2022/08/15 01:43:17;;;;;;;9.48;8.68;;;23.30;55.50;;;;;;5097394;28;20117;-68
2022/08/15 01:45:44;;;;;;;9.77;8.95;;;23.20;55.70;;;;;;5114163;27;20034;-69
2022/08/15 01:48:26;;;;;;;9.80;8.80;;;23.20;55.80;;;;;;5127479;27;20083;-64
2022/08/15 01:51:02;;;;;;;9.73;8.43;;;23.20;55.50;;;;;;5123912;27;20087;-68
2022/08/15 01:53:35;;;;;;;10.00;9.10;;;23.20;55.60;;;;;;5106101;28;20051;-68
2022/08/15 01:56:10;;;;;;;10.23;9.32;;;23.20;55.70;;;;;;5130463;27;20035;-68
2022/08/15 01:58:41;;;;;;;10.73;9.73;;;23.20;56.00;;;;;;5099308;28;20043;-69
2022/08/15 02:01:12;;;;;;;10.32;9.32;;;23.20;56.30;;;;;;5098458;28;20491;-68
2022/08/15 02:03:40;;;;;;;10.77;9.77;;;23.20;56.20;;;;;;5125624;27;20071;-69
2022/08/15 02:06:26;;;;;;;8.75;7.95;;;23.10;56.30;;;;;;5135079;27;20435;-64
2022/08/15 02:08:52;;;;;;;8.88;8.18;;;23.20;55.90;;;;;;5113729;28;20071;-64
2022/08/15 02:11:21;;;;;;;10.35;8.73;;;23.10;56.10;;;;;;5116405;27;20433;-64
2022/08/15 02:13:48;;;;;;;9.50;8.70;;;23.10;56.00;;;;;;5102019;27;20035;-68
2022/08/15 02:16:17;;;;;;;9.48;8.68;;;23.10;55.90;;;;;;5130484;27;20390;-68
2022/08/15 02:18:43;;;;;;;9.85;8.95;;;23.10;55.90;;;;;;5121938;27;20122;-64
2022/08/15 02:21:10;;;;;;;9.35;8.45;;;23.10;56.10;;;;;;5115011;27;20464;-64
2022/08/15 02:23:36;;;;;;;10.05;9.05;;;23.10;56.00;;;;;;5106335;27;20027;-64
2022/08/15 02:26:05;;;;;;;11.43;10.30;;;23.10;56.00;;;;;;5116366;27;20554;-69
2022/08/15 02:28:31;;;;;;;11.73;10.55;;;23.10;56.20;;;;;;5133555;27;20035;-64
2022/08/15 02:30:57;;;;;;;11.57;10.45;;;23.10;56.60;;;;;;5132760;27;20500;-64
2022/08/15 02:33:24;;;;;;;10.57;9.52;;;23.00;56.90;;;;;;5128726;27;20035;-68
2022/08/15 02:35:51;;;;;;;11.38;10.38;;;22.90;56.70;;;;;;5097430;28;20378;-69
2022/08/15 02:38:18;;;;;;;11.52;10.35;;;22.90;56.80;;;;;;5128007;27;20035;-64
2022/08/15 02:40:44;;;;;;;9.43;8.52;;;22.90;57.30;;;;;;5092058;28;20044;-64
2022/08/15 02:43:12;;;;;;;9.68;8.68;;;22.90;56.80;;;;;;5105705;27;20088;-64
2022/08/15 02:45:39;;;;;;;9.52;8.63;;;22.80;56.70;;;;;;5106910;28;20789;-64
2022/08/15 02:48:08;;;;;;;9.90;8.80;;;22.80;56.60;;;;;;5107155;27;20050;-68
2022/08/15 02:50:36;;;;;;;9.30;8.50;;;22.80;57.00;;;;;;5123839;27;20510;-68
2022/08/15 02:53:13;;;;;;;9.77;8.85;;;22.80;56.50;;;;;;5111436;27;20050;-64
2022/08/15 02:55:45;;;;;;;9.38;8.57;;;22.90;56.50;;;;;;5099654;28;20458;-65
2022/08/15 02:58:11;;;;;;;9.55;8.68;;;22.90;56.50;;;;;;5110217;27;20486;-65
2022/08/15 03:00:38;;;;;;;9.73;8.77;;;22.90;56.40;;;;;;5110295;27;20492;-64
2022/08/15 03:03:08;;;;;;;9.55;8.50;;;22.90;56.40;;;;;;5116228;27;20087;-65
2022/08/15 03:05:37;;;;;;;9.32;8.52;;;22.90;56.40;;;;;;5121447;27;20031;-65
2022/08/15 03:08:03;;;;;;;9.65;8.80;;;22.90;56.30;;;;;;5134597;27;20031;-68
2022/08/15 03:10:29;;;;;;;9.88;8.98;;;22.90;56.30;;;;;;5099055;27;20493;-65
2022/08/15 03:12:59;;;;;;;10.43;8.82;;;22.90;56.50;;;;;;5132140;27;20067;-65
2022/08/15 03:15:30;;;;;;;11.13;10.05;;;22.90;56.30;;;;;;5116836;27;20402;-65
2022/08/15 03:17:56;;;;;;;10.68;9.70;;;22.90;56.60;;;;;;5126831;27;20482;-65
2022/08/15 03:20:21;;;;;;;9.55;8.75;;;22.90;56.60;;;;;;5107063;28;20093;-65
2022/08/15 03:22:49;;;;;;;9.75;8.77;;;22.90;56.50;;;;;;5088546;28;20428;-63
2022/08/15 03:25:17;;;;;;;9.20;8.40;;;22.90;56.30;;;;;;5104501;28;20080;-68
2022/08/15 03:27:43;;;;;;;10.07;9.18;;;22.90;56.20;;;;;;5112560;27;20045;-69
2022/08/15 03:30:11;;;;;;;8.57;7.78;;;22.90;56.30;;;;;;5099186;27;20475;-68
2022/08/15 03:32:58;;;;;;;8.82;8.05;;;22.90;56.10;;;;;;5106136;27;20084;-68
2022/08/15 03:35:27;;;;;;;9.90;8.98;;;22.90;55.90;;;;;;5104779;28;20035;-69
2022/08/15 03:37:53;;;;;;;10.40;9.07;;;22.90;56.10;;;;;;5112138;27;20405;-64
2022/08/15 03:40:19;;;;;;;9.90;8.90;;;22.90;56.00;;;;;;5115070;28;20066;-64
2022/08/15 03:42:57;;;;;;;9.13;8.32;;;22.90;56.00;;;;;;5101719;28;20617;-63
2022/08/15 03:45:25;;;;;;;10.88;9.88;;;22.90;56.10;;;;;;5116412;28;20083;-67
2022/08/15 03:47:51;;;;;;;10.07;9.07;;;22.90;56.20;;;;;;5113458;28;20047;-68
2022/08/15 03:50:17;;;;;;;11.07;9.98;;;22.90;56.20;;;;;;5098975;28;20147;-68
2022/08/15 03:52:50;;;;;;;9.25;8.40;;;22.90;56.30;;;;;;5099093;28;20067;-69
2022/08/15 03:55:17;;;;;;;10.38;9.45;;;22.90;56.20;;;;;;5097390;28;20065;-69
2022/08/15 03:57:44;;;;;;;10.50;9.50;;;22.80;56.20;;;;;;5113369;28;20066;-68
2022/08/15 04:00:11;;;;;;;10.00;8.95;;;22.80;56.10;;;;;;5116043;28;20058;-69
2022/08/15 04:02:37;;;;;;;9.00;8.20;;;22.80;56.10;;;;;;5114805;28;20071;-69
2022/08/15 04:05:04;;;;;;;10.30;9.38;;;22.80;56.10;;;;;;5115371;28;20078;-68
2022/08/15 04:07:32;;;;;;;10.75;9.75;;;22.80;56.30;;;;;;5110239;28;20043;-64
2022/08/15 04:09:58;;;;;;;11.02;9.93;;;22.80;56.40;;;;;;5104997;28;20505;-65
2022/08/15 04:12:34;;;;;;;10.52;9.52;;;22.80;56.60;;;;;;5122655;28;20494;-64
2022/08/15 04:15:03;;;;;;;9.55;8.73;;;22.80;56.50;;;;;;5107310;28;20039;-69
2022/08/15 04:17:29;;;;;;;10.82;9.82;;;22.70;56.30;;;;;;5100446;28;20395;-69
2022/08/15 04:19:55;;;;;;;12.50;11.40;;;22.70;56.40;;;;;;5106722;28;20039;-64
2022/08/15 04:22:36;;;;;;;12.00;11.00;;;22.70;56.70;;;;;;5097054;28;20043;-69
2022/08/15 04:25:13;;;;;;;11.85;10.77;;;22.70;57.00;;;;;;5100406;28;20570;-64
2022/08/15 04:27:39;;;;;;;12.73;11.63;;;22.60;57.10;;;;;;5095953;28;20054;-64
2022/08/15 04:30:06;;;;;;;10.45;9.55;;;22.50;57.20;;;;;;5129910;28;20612;-64
2022/08/15 04:32:33;;;;;;;10.18;9.30;;;22.50;57.20;;;;;;5131582;28;20038;-63
2022/08/15 04:34:59;;;;;;;11.00;9.93;;;22.40;56.90;;;;;;5100912;28;20449;-63
2022/08/15 04:37:27;;;;;;;10.15;9.25;;;22.40;56.90;;;;;;5106113;28;20042;-69
2022/08/15 04:39:53;;;;;;;11.15;10.13;;;22.40;56.80;;;;;;5100215;28;20042;-64
2022/08/15 04:42:19;;;;;;;11.52;10.52;;;22.30;56.80;;;;;;5118320;28;20047;-67
2022/08/15 04:44:48;;;;;;;10.82;9.73;;;22.30;56.90;;;;;;5107427;28;20493;-64
2022/08/15 04:47:15;;;;;;;10.13;9.20;;;22.40;57.00;;;;;;5111285;28;20036;-69
2022/08/15 04:49:42;;;;;;;10.75;9.75;;;22.40;57.00;;;;;;5108941;28;20035;-63
2022/08/15 04:52:12;;;;;;;10.70;9.80;;;22.40;56.90;;;;;;5128376;28;20043;-64
2022/08/15 04:54:38;;;;;;;11.18;10.13;;;22.40;57.00;;;;;;5102920;28;20485;-68
2022/08/15 04:57:05;;;;;;;10.88;9.82;;;22.30;57.00;;;;;;5114008;27;20598;-69
2022/08/15 04:59:30;;;;;;;10.05;9.10;;;22.40;57.10;;;;;;5131360;27;20038;-69
2022/08/15 05:01:56;;;;;;;11.38;10.25;;;22.40;57.10;;;;;;5105270;27;20599;-64
2022/08/15 05:04:22;;;;;;;11.98;10.93;;;22.30;57.30;;;;;;5095284;27;20056;-70
2022/08/15 05:06:48;;;;;;;11.02;9.93;;;22.30;57.40;;;;;;5113675;28;20039;-67
2022/08/15 05:09:14;;;;;;;10.02;9.18;;;22.30;57.40;;;;;;5102511;27;20168;-64
2022/08/15 05:11:39;;;;;;;10.50;9.60;;;22.30;57.30;;;;;;5117749;27;20050;-64
2022/08/15 05:14:05;;;;;;;12.27;11.10;;;22.30;57.40;;;;;;5099691;27;20039;-64
2022/08/15 05:16:32;;;;;;;12.25;11.15;;;22.30;57.60;;;;;;5113473;27;20064;-68
2022/08/15 05:18:58;;;;;;;11.63;10.52;;;22.30;57.70;;;;;;5101486;27;20039;-64
2022/08/15 05:21:24;;;;;;;12.70;11.50;;;22.30;57.90;;;;;;5117450;27;20042;-69
2022/08/15 05:23:50;;;;;;;13.65;12.38;;;22.30;58.10;;;;;;5125170;27;20031;-68
2022/08/15 05:26:16;;;;;;;11.90;10.70;;;22.20;58.40;;;;;;5098147;28;20092;-68
2022/08/15 05:28:41;;;;;;;13.13;11.80;;;22.10;58.60;;;;;;5110692;27;20046;-69
2022/08/15 05:31:09;;;;;;;15.35;11.98;;;22.10;58.60;;;;;;5115223;27;20069;-70
2022/08/15 05:33:37;;;;;;;14.15;12.40;;;22.00;58.70;;;;;;5128012;27;20097;-63
2022/08/15 05:36:05;;;;;;;13.60;12.40;;;22.00;58.70;;;;;;5117007;27;20046;-64
2022/08/15 05:38:36;;;;;;;12.50;11.40;;;22.00;59.00;;;;;;5117342;27;20041;-64
2022/08/15 05:41:19;;;;;;;13.40;12.00;;;22.00;59.00;;;;;;5113235;27;20078;-69
2022/08/15 05:44:09;;;;;;;13.35;12.05;;;22.00;59.00;;;;;;5135594;27;20042;-69
2022/08/15 05:46:44;;;;;;;13.82;12.48;;;22.10;59.00;;;;;;5097623;28;20044;-63
2022/08/15 05:49:28;;;;;;;15.82;14.18;;;22.10;59.20;;;;;;5111298;28;20054;-64
2022/08/15 05:52:12;;;;;;;13.52;12.32;;;22.10;59.40;;;;;;5097302;28;20421;-64
2022/08/15 05:54:58;;;;;;;14.52;13.07;;;22.10;59.40;;;;;;5106644;27;20047;-65
2022/08/15 05:57:47;;;;;;;14.45;13.15;;;22.20;59.70;;;;;;5117411;27;20039;-65
2022/08/15 06:00:15;;;;;;;13.70;12.30;;;22.10;59.60;;;;;;5132142;27;20134;-63
2022/08/15 06:02:57;;;;;;;14.80;13.40;;;22.10;59.80;;;;;;5096791;28;20079;-64
2022/08/15 06:05:28;;;;;;;14.55;13.25;;;22.20;59.70;;;;;;5096454;28;20032;-64
2022/08/15 06:07:56;;;;;;;14.77;13.38;;;22.20;59.90;;;;;;5108040;27;20067;-64
2022/08/15 06:10:43;;;;;;;14.68;13.15;;;22.20;60.00;;;;;;5133904;27;20043;-64
2022/08/15 06:13:13;;;;;;;14.18;12.88;;;22.30;60.10;;;;;;5127993;27;20087;-65
2022/08/15 06:15:54;;;;;;;14.98;13.65;;;22.50;60.10;;;;;;5134779;27;20043;-64
2022/08/15 06:18:21;;;;;;;14.98;13.68;;;22.60;59.60;;;;;;5096814;28;20054;-63
2022/08/15 06:21:00;;;;;;;15.02;13.63;;;22.70;59.40;;;;;;5122513;27;20398;-64
2022/08/15 06:23:37;;;;;;;15.02;13.45;;;22.70;59.40;;;;;;5113505;28;20052;-69
2022/08/15 06:26:36;;;;;;;14.25;13.05;;;22.80;59.20;;;;;;5107035;28;20035;-70
2022/08/15 06:29:11;;;;;;;14.35;12.85;;;22.90;59.30;;;;;;5096717;28;20048;-64
2022/08/15 06:32:09;;;;;;;14.70;13.30;;;23.10;59.20;;;;;;5096639;28;20127;-64
2022/08/15 06:34:57;;;;;;;15.02;13.63;;;23.10;58.70;;;;;;5094549;28;20039;-65
2022/08/15 06:38:09;;;;;;;14.80;13.27;;;23.10;58.80;;;;;;5097592;28;20050;-68
2022/08/15 06:41:04;;;;;;;14.13;12.75;;;23.20;58.90;;;;;;5104263;27;20058;-65
2022/08/15 06:43:30;;;;;;;14.65;13.20;;;23.30;59.00;;;;;;5127776;27;20501;-70
2022/08/15 06:45:59;;;;;;;15.10;13.65;;;23.40;58.90;;;;;;5127973;27;20050;-70
2022/08/15 06:48:31;;;;;;;14.23;12.90;;;23.50;58.20;;;;;;5107308;28;20040;-68
2022/08/15 06:50:59;;;;;;;13.95;12.38;;;23.60;57.70;;;;;;5096978;28;20040;-69
2022/08/15 06:53:39;;;;;;;14.50;13.20;;;23.60;57.50;;;;;;5115259;27;20043;-69
2022/08/15 06:56:24;;;;;;;14.65;13.25;;;23.60;57.40;;;;;;5116288;27;20050;-64
2022/08/15 06:59:14;;;;;;;14.35;13.05;;;23.60;57.50;;;;;;5109611;28;20054;-63
2022/08/15 07:01:40;;;;;;;13.98;12.65;;;23.60;57.70;;;;;;5092316;28;20117;-67
2022/08/15 07:04:25;;;;;;;12.75;11.63;;;23.60;57.90;;;;;;5092982;28;20483;-68
2022/08/15 07:07:17;;;;;;;13.20;12.00;;;23.60;57.90;;;;;;5112644;28;20043;-64
2022/08/15 07:10:13;;;;;;;13.63;12.35;;;23.70;58.10;;;;;;5112745;28;20058;-68
2022/08/15 07:13:00;;;;;;;13.07;11.45;;;23.70;57.60;;;;;;5112699;28;20046;-64
2022/08/15 07:15:51;;;;;;;12.77;11.25;;;23.80;57.10;;;;;;5102396;28;20035;-70
2022/08/15 07:18:28;;;;;;;12.38;11.15;;;23.90;56.40;;;;;;5113446;28;20048;-69
2022/08/15 07:21:04;;;;;;;12.20;10.90;;;24.00;56.30;;;;;;5094127;28;20044;-69
2022/08/15 07:23:31;;;;;;;12.02;10.93;;;24.00;55.90;;;;;;5093926;28;20072;-64
2022/08/15 07:26:07;;;;;;;11.68;10.52;;;24.20;56.00;;;;;;5108285;28;20526;-70
2022/08/15 07:28:34;;;;;;;12.65;11.38;;;24.30;55.80;;;;;;5112728;28;20070;-70
2022/08/15 07:31:11;;;;;;;12.35;11.25;;;24.40;55.50;;;;;;5098501;28;20081;-69
2022/08/15 07:33:46;;;;;;;11.10;10.02;;;24.60;55.20;;;;;;5113297;28;20390;-64
2022/08/15 07:36:31;;;;;;;11.18;9.95;;;24.90;55.30;;;;;;5104952;28;20084;-68
2022/08/15 07:39:19;;;;;;;15.20;10.45;;;25.10;54.90;;;;;;5092846;28;20122;-70
2022/08/15 07:41:48;;;;;;;10.10;8.93;;;25.40;54.20;;;;;;5088781;28;20048;-64
2022/08/15 07:44:20;;;;;;;10.65;9.57;;;25.70;54.20;;;;;;5069845;28;20071;-65
2022/08/15 07:47:01;;;;;;;9.82;8.93;;;26.10;53.80;;;;;;5113842;28;20445;-69
2022/08/15 07:49:32;;;;;;;10.27;9.27;;;26.40;53.20;;;;;;5094325;28;20705;-70
2022/08/15 07:52:20;;;;;;;11.70;10.60;;;26.70;52.70;;;;;;5092121;28;20046;-69
2022/08/15 07:55:15;;;;;;;10.50;9.45;;;27.00;51.90;;;;;;5089314;28;20090;-69
2022/08/15 07:57:41;;;;;;;11.05;10.05;;;27.30;51.40;;;;;;5098856;28;20047;-65
2022/08/15 08:00:25;;;;;;;11.68;10.43;;;27.50;50.60;;;;;;5068639;28;20106;-65
2022/08/15 08:02:59;;;;;;;10.40;9.40;;;27.70;50.20;;;;;;5086899;28;20066;-65
2022/08/15 08:05:29;;;;;;;12.15;11.00;;;27.90;49.90;;;;;;5084004;28;20503;-65
2022/08/15 08:07:57;;;;;;;11.82;10.68;;;28.10;49.70;;;;;;5085303;28;20044;-65
2022/08/15 08:10:35;;;;;;;12.25;11.05;;;28.40;49.30;;;;;;5083474;28;20142;-65
2022/08/15 08:13:23;;;;;;;11.38;10.30;;;28.50;49.20;;;;;;5101336;28;20458;-65
2022/08/15 08:16:35;;;;;;;11.57;10.55;;;28.60;48.80;;;;;;5103364;28;20149;-65
2022/08/15 08:19:26;;;;;;;12.93;11.73;;;28.80;48.90;;;;;;5063986;28;20074;-65
2022/08/15 08:22:17;;;;;;;13.63;12.23;;;28.90;48.40;;;;;;5095101;28;20032;-68
2022/08/15 08:25:14;;;;;;;12.35;11.25;;;29.00;47.90;;;;;;5094754;28;20341;-68
2022/08/15 08:28:06;;;;;;;10.57;9.68;;;29.00;47.90;;;;;;5092208;28;20036;-65
2022/08/15 08:30:45;;;;;;;11.13;10.02;;;29.20;48.60;;;;;;5076306;27;20052;-64
2022/08/15 08:33:14;;;;;;;11.57;10.48;;;29.40;47.90;;;;;;5109520;27;20235;-70
2022/08/15 08:35:54;;;;;;;11.07;9.88;;;29.50;47.70;;;;;;5106963;28;21376;-69
2022/08/15 08:38:50;;;;;;;10.60;9.55;;;29.70;47.10;;;;;;5121378;27;20052;-69
2022/08/15 08:41:24;;;;;;;9.77;8.77;;;29.80;47.00;;;;;;5104421;28;20487;-70
2022/08/15 08:44:06;;;;;;;10.82;9.70;;;30.00;46.60;;;;;;5106406;28;20554;-69
2022/08/15 08:46:48;;;;;;;9.75;8.77;;;30.20;46.40;;;;;;5098135;28;20040;-70
2022/08/15 08:49:33;;;;;;;8.73;7.93;;;30.40;46.20;;;;;;5105882;28;20040;-69
2022/08/15 08:52:28;;;;;;;9.68;8.68;;;30.70;46.00;;;;;;5103559;28;20043;-69
2022/08/15 08:55:17;;;;;;;9.10;8.30;;;30.90;45.50;;;;;;5085342;28;20073;-69
2022/08/15 08:57:52;;;;;;;9.75;8.88;;;31.10;44.70;;;;;;5095906;28;20043;-69
2022/08/15 09:00:23;;;;;;;8.73;8.00;;;31.20;44.60;;;;;;5107517;28;20499;-68
2022/08/15 09:03:06;;;;;;;9.07;8.38;;;31.40;44.50;;;;;;5101336;28;20104;-69
2022/08/15 09:05:42;;;;;;;12.30;11.13;;;31.50;44.40;;;;;;5107538;28;20039;-68
2022/08/15 09:08:16;;;;;;;10.25;9.35;;;31.50;43.50;;;;;;5103710;28;20493;-70
2022/08/15 09:10:47;;;;;;;9.80;8.90;;;31.50;43.40;;;;;;5105524;28;20074;-69
2022/08/15 09:13:33;;;;;;;11.13;9.55;;;31.40;43.60;;;;;;5107097;27;20051;-69
2022/08/15 09:16:08;;;;;;;9.88;8.95;;;31.40;43.80;;;;;;5107407;28;20047;-69
2022/08/15 09:18:40;;;;;;;11.30;10.25;;;31.40;43.80;;;;;;5088263;28;20039;-68
2022/08/15 09:21:06;;;;;;;9.02;8.23;;;31.40;43.50;;;;;;5085629;28;20517;-70
2022/08/15 09:23:38;;;;;;;8.57;7.78;;;31.40;43.70;;;;;;5099624;28;20040;-69
2022/08/15 09:26:19;;;;;;;9.77;8.77;;;31.50;44.10;;;;;;5104715;28;20161;-69
2022/08/15 09:28:55;;;;;;;9.27;8.48;;;31.40;43.90;;;;;;5099841;28;21672;-68
2022/08/15 09:31:26;;;;;;;8.55;7.82;;;31.40;43.80;;;;;;5113489;27;20479;-68
2022/08/15 09:34:07;;;;;;;9.15;8.25;;;31.40;44.00;;;;;;5104973;27;20048;-64
2022/08/15 09:37:01;;;;;;;8.88;7.97;;;31.40;43.60;;;;;;5096248;28;20058;-63
2022/08/15 09:39:38;;;;;;;10.40;9.40;;;31.20;43.80;;;;;;5099971;28;20131;-64
2022/08/15 09:42:22;;;;;;;9.82;8.35;;;31.10;43.60;;;;;;5105255;28;20085;-68
2022/08/15 09:45:00;;;;;;;10.57;9.20;;;31.00;44.10;;;;;;5089007;28;20069;-70
2022/08/15 09:48:00;;;;;;;8.55;7.75;;;31.00;44.50;;;;;;5104658;27;20858;-69
2022/08/15 09:50:48;;;;;;;8.65;7.88;;;30.90;44.80;;;;;;5097810;28;20039;-68
2022/08/15 09:53:23;;;;;;;11.25;9.98;;;30.90;44.90;;;;;;5099765;28;20044;-69
2022/08/15 09:55:51;;;;;;;10.10;9.20;;;30.80;44.40;;;;;;5104011;28;20055;-69
2022/08/15 09:58:22;;;;;;;10.82;9.82;;;30.70;44.40;;;;;;5094922;28;20126;-64
2022/08/15 10:01:15;;;;;;;12.85;11.65;;;30.50;44.50;;;;;;5103733;28;20078;-64
2022/08/15 10:03:43;;;;;;;13.00;11.80;;;30.20;44.80;;;;;;5091922;28;20108;-69
2022/08/15 10:06:12;;;;;;;13.68;12.38;;;29.90;45.80;;;;;;5100020;28;20767;-68
2022/08/15 10:08:53;;;;;;;13.85;12.55;;;29.60;46.60;;;;;;5097166;28;20093;-64
2022/08/15 10:11:39;;;;;;;14.30;12.38;;;29.30;47.10;;;;;;5110986;27;20122;-64
2022/08/15 10:14:47;;;;;;;18.30;13.98;;;28.90;47.80;;;;;;5075853;28;20068;-63
2022/08/15 10:17:34;;;;;;;17.73;14.93;;;28.50;50.90;;;;;;5085702;28;20047;-64
2022/08/15 10:20:15;;;;;;;16.20;14.00;;;28.30;53.20;;;;;;5096868;28;20062;-68
2022/08/15 10:22:59;;;;;;;15.05;13.60;;;28.10;52.30;;;;;;5082048;28;20573;-69
2022/08/15 10:25:38;;;;;;;12.15;10.57;;;27.90;53.50;;;;;;5105072;27;20039;-68
2022/08/15 10:28:13;;;;;;;12.90;11.60;;;27.80;54.20;;;;;;5096975;28;20108;-68
2022/08/15 10:30:51;;;;;;;15.88;13.85;;;27.70;54.70;;;;;;5095958;28;20081;-64
2022/08/15 10:33:32;;;;;;;15.75;12.40;;;27.60;55.60;;;;;;5110487;28;20099;-68
2022/08/15 10:36:16;;;;;;;13.40;12.10;;;27.60;55.70;;;;;;5109183;28;20126;-68
2022/08/15 10:39:00;;;;;;;11.38;10.27;;;27.50;56.00;;;;;;5111487;28;20441;-68
2022/08/15 10:41:40;;;;;;;15.57;14.18;;;27.50;56.20;;;;;;5127027;27;20040;-68
2022/08/15 10:44:25;;;;;;;16.42;13.18;;;27.50;57.80;;;;;;5101725;28;20089;-64
2022/08/15 10:47:15;;;;;;;14.63;11.82;;;27.40;57.10;;;;;;5097181;28;20391;-64
2022/08/15 10:50:05;;;;;;;16.48;12.88;;;27.40;57.40;;;;;;5100585;28;20051;-68
2022/08/15 10:52:37;;;;;;;13.68;12.27;;;27.40;57.70;;;;;;5112134;28;20086;-68
2022/08/15 10:55:09;;;;;;;12.18;11.07;;;27.30;58.00;;;;;;5129902;27;20051;-68
2022/08/15 10:57:48;;;;;;;12.85;11.55;;;27.40;58.50;;;;;;5112503;28;20116;-68
2022/08/15 11:00:32;;;;;;;11.98;10.98;;;27.40;58.60;;;;;;5103019;28;20056;-69
2022/08/15 11:03:02;;;;;;;11.18;10.18;;;27.40;58.60;;;;;;5095625;28;20508;-69
2022/08/15 11:05:28;;;;;;;12.23;11.13;;;27.50;58.50;;;;;;5113355;28;20039;-68
2022/08/15 11:07:55;;;;;;;12.25;11.02;;;27.50;58.40;;;;;;5112503;28;20378;-68
2022/08/15 11:10:24;;;;;;;11.77;10.57;;;27.60;58.30;;;;;;5112380;28;20043;-69
2022/08/15 11:12:54;;;;;;;13.48;12.18;;;27.60;58.00;;;;;;5109782;28;20080;-63
2022/08/15 11:15:30;;;;;;;13.73;12.45;;;27.70;57.60;;;;;;5089398;28;20040;-64
2022/08/15 11:18:08;;;;;;;13.52;11.55;;;27.70;56.70;;;;;;5094884;28;20050;-64
2022/08/15 11:20:49;;;;;;;12.85;11.75;;;27.80;56.70;;;;;;5112708;28;20100;-63
2022/08/15 11:23:31;;;;;;;13.50;12.20;;;27.80;56.50;;;;;;5105983;28;20082;-63
2022/08/15 11:25:58;;;;;;;13.45;12.25;;;27.90;56.40;;;;;;5099946;28;20390;-62
2022/08/15 11:28:25;;;;;;;13.07;11.82;;;27.90;56.90;;;;;;5092454;28;20434;-63
2022/08/15 11:31:07;;;;;;;12.60;11.35;;;28.00;56.30;;;;;;5105828;28;20077;-69
2022/08/15 11:33:36;;;;;;;12.77;10.52;;;28.00;55.80;;;;;;5106960;28;20035;-69
2022/08/15 11:36:22;;;;;;;12.10;10.77;;;28.00;56.20;;;;;;5108781;28;20047;-68
2022/08/15 11:38:51;;;;;;;11.38;10.25;;;28.10;55.90;;;;;;5085534;28;20462;-63
2022/08/15 11:41:23;;;;;;;11.13;9.60;;;28.10;55.50;;;;;;5113395;28;20043;-63
2022/08/15 11:43:51;;;;;;;9.35;8.45;;;28.10;54.90;;;;;;5110643;28;20048;-63
2022/08/15 11:46:20;;;;;;;8.68;7.85;;;28.10;54.50;;;;;;5107117;28;20028;-63
2022/08/15 11:48:50;;;;;;;10.05;9.05;;;28.10;54.30;;;;;;5093219;28;20638;-63
2022/08/15 11:51:15;;;;;;;11.43;10.32;;;28.20;54.50;;;;;;5097341;28;20040;-63
2022/08/15 11:54:07;;;;;;;10.25;8.65;;;28.20;54.80;;;;;;5104459;28;20035;-63
2022/08/15 11:56:50;;;;;;;10.35;9.32;;;28.20;54.20;;;;;;5094367;28;20044;-64
2022/08/15 11:59:27;;;;;;;8.93;8.02;;;28.20;53.80;;;;;;5099398;28;20044;-63
2022/08/15 12:02:29;;;;;;;7.45;6.70;;;28.20;54.50;;;;;;5113056;28;20048;-63
2022/08/15 12:04:55;;;;;;;10.40;8.30;;;28.30;54.00;;;;;;5072130;27;20055;-63
2022/08/15 12:07:30;;;;;;;9.40;8.50;;;28.30;54.10;;;;;;5130125;27;20471;-63
2022/08/15 12:09:59;;;;;;;10.13;8.77;;;28.30;54.00;;;;;;5121685;27;20099;-63
2022/08/15 12:12:36;;;;;;;8.93;7.38;;;28.30;54.10;;;;;;5122471;27;20050;-63
2022/08/15 12:15:18;;;;;;;10.63;9.00;;;28.30;53.60;;;;;;5115784;27;20039;-63
2022/08/15 12:18:32;;;;;;;10.52;9.48;;;28.30;53.30;;;;;;5139606;27;20564;-64
2022/08/15 12:21:03;;;;;;;11.50;10.27;;;28.40;53.10;;;;;;5138541;27;20035;-67
2022/08/15 12:23:29;;;;;;;11.02;9.88;;;28.30;53.20;;;;;;5121809;27;20328;-69
2022/08/15 12:26:03;;;;;;;11.88;10.68;;;28.40;53.30;;;;;;5120326;27;20071;-68
2022/08/15 12:28:30;;;;;;;13.18;10.95;;;28.40;53.50;;;;;;5105033;27;20466;-69
2022/08/15 12:31:04;;;;;;;12.00;10.15;;;28.40;53.30;;;;;;5140220;27;20509;-68
2022/08/15 12:33:31;;;;;;;10.75;9.75;;;28.40;53.00;;;;;;5121793;27;20050;-64
2022/08/15 12:35:58;;;;;;;11.27;10.15;;;28.40;53.10;;;;;;5116069;27;20537;-64
2022/08/15 12:38:24;;;;;;;14.15;12.68;;;28.50;53.10;;;;;;5140281;27;20043;-64
2022/08/15 12:40:50;;;;;;;12.07;10.77;;;28.50;53.30;;;;;;5140413;27;20050;-68
2022/08/15 12:43:17;;;;;;;13.75;12.45;;;28.50;53.30;;;;;;5112198;28;20040;-68
2022/08/15 12:45:43;;;;;;;13.45;12.25;;;28.60;53.50;;;;;;5132826;27;20427;-63
2022/08/15 12:48:22;;;;;;;12.38;11.38;;;28.70;53.40;;;;;;5134312;27;20035;-64
2022/08/15 12:50:48;;;;;;;12.05;10.82;;;28.80;53.30;;;;;;5139873;27;20039;-64
2022/08/15 12:53:13;;;;;;;11.07;9.07;;;28.80;52.80;;;;;;5121750;27;20363;-67
2022/08/15 12:55:40;;;;;;;8.98;8.07;;;28.90;52.50;;;;;;5122015;27;20126;-69
2022/08/15 12:58:07;;;;;;;9.15;8.27;;;28.90;52.10;;;;;;5120174;27;20043;-69
2022/08/15 13:00:34;;;;;;;10.65;8.13;;;28.90;52.20;;;;;;5121839;27;20051;-68
2022/08/15 13:03:13;;;;;;;8.07;7.30;;;29.00;51.90;;;;;;5139973;27;20047;-68
2022/08/15 13:05:41;;;;;;;8.18;6.18;;;29.00;51.60;;;;;;5116989;27;20034;-69
2022/08/15 13:08:07;;;;;;;9.52;6.97;;;29.00;51.30;;;;;;5129164;27;20035;-69
2022/08/15 13:10:33;;;;;;;7.00;6.35;;;29.10;51.50;;;;;;5109812;27;20501;-69